sensor_id;sensor_type;location;lat;lon;timestamp;pressure;altitude;pressure_sealevel;temperature;humidity
62031;BME280;62035;52.094;5.112;2023-05-02T00:01:01;102147.59;;;11.62;100.00
62031;BME280;62035;52.094;5.112;2023-05-02T00:03:30;102135.34;;;11.70;100.00
62031;BME280;62035;52.094;5.112;2023-05-02T00:05:58;102133.78;;;11.79;100.00
62031;BME280;62035;52.094;5.112;2023-05-02T00:08:26;102132.69;;;11.82;100.00
62031;BME280;62035;52.094;5.112;2023-05-02T00:10:54;102132.78;;;11.91;100.00
62031;BME280;62035;52.094;5.112;2023-05-02T00:13:23;102129.88;;;11.83;100.00
62031;BME280;62035;52.094;5.112;2023-05-02T00:15:51;102133.06;;;11.77;100.00
62031;BME280;62035;52.094;5.112;2023-05-02T00:18:18;102131.09;;;11.79;100.00
62031;BME280;62035;52.094;5.112;2023-05-02T00:20:46;102140.56;;;11.83;100.00
62031;BME280;62035;52.094;5.112;2023-05-02T00:23:13;102137.63;;;11.86;100.00
62031;BME280;62035;52.094;5.112;2023-05-02T00:25:43;102144.41;;;11.90;100.00
62031;BME280;62035;52.094;5.112;2023-05-02T00:28:11;102148.66;;;11.93;100.00
62031;BME280;62035;52.094;5.112;2023-05-02T00:30:44;102140.34;;;12.07;100.00
62031;BME280;62035;52.094;5.112;2023-05-02T00:33:12;102142.28;;;12.05;100.00
62031;BME280;62035;52.094;5.112;2023-05-02T00:35:40;102139.59;;;12.16;100.00
62031;BME280;62035;52.094;5.112;2023-05-02T00:38:08;102133.41;;;12.16;100.00
62031;BME280;62035;52.094;5.112;2023-05-02T00:40:43;102147.47;;;12.18;100.00
62031;BME280;62035;52.094;5.112;2023-05-02T00:43:12;102141.22;;;12.28;100.00
62031;BME280;62035;52.094;5.112;2023-05-02T00:45:41;102138.06;;;12.34;100.00
62031;BME280;62035;52.094;5.112;2023-05-02T00:48:11;102141.75;;;12.22;100.00
62031;BME280;62035;52.094;5.112;2023-05-02T00:50:41;102139.28;;;12.30;100.00
62031;BME280;62035;52.094;5.112;2023-05-02T00:53:09;102134.41;;;12.03;100.00
62031;BME280;62035;52.094;5.112;2023-05-02T00:55:37;102148.56;;;12.15;100.00
62031;BME280;62035;52.094;5.112;2023-05-02T00:58:07;102154.75;;;12.16;100.00
62031;BME280;62035;52.094;5.112;2023-05-02T01:00:47;102152.34;;;12.13;100.00
62031;BME280;62035;52.094;5.112;2023-05-02T01:03:33;102159.53;;;12.01;100.00
62031;BME280;62035;52.094;5.112;2023-05-02T01:06:21;102140.72;;;12.02;100.00
62031;BME280;62035;52.094;5.112;2023-05-02T01:09:04;102163.06;;;12.33;100.00
62031;BME280;62035;52.094;5.112;2023-05-02T01:11:47;102165.47;;;12.37;100.00
62031;BME280;62035;52.094;5.112;2023-05-02T01:14:24;102160.50;;;12.32;100.00
62031;BME280;62035;52.094;5.112;2023-05-02T01:16:57;102167.81;;;12.30;100.00
62031;BME280;62035;52.094;5.112;2023-05-02T01:19:34;102173.34;;;12.38;100.00
62031;BME280;62035;52.094;5.112;2023-05-02T01:22:07;102173.53;;;12.25;100.00
62031;BME280;62035;52.094;5.112;2023-05-02T01:24:42;102175.03;;;12.07;100.00
62031;BME280;62035;52.094;5.112;2023-05-02T01:27:26;102176.69;;;12.19;100.00
62031;BME280;62035;52.094;5.112;2023-05-02T01:30:02;102178.06;;;12.02;100.00
62031;BME280;62035;52.094;5.112;2023-05-02T01:32:33;102184.44;;;11.79;100.00
62031;BME280;62035;52.094;5.112;2023-05-02T01:35:07;102197.06;;;11.88;100.00
62031;BME280;62035;52.094;5.112;2023-05-02T01:37:38;102200.91;;;11.95;100.00
62031;BME280;62035;52.094;5.112;2023-05-02T01:40:10;102204.78;;;11.69;100.00
62031;BME280;62035;52.094;5.112;2023-05-02T01:42:40;102205.53;;;11.71;100.00
62031;BME280;62035;52.094;5.112;2023-05-02T01:45:12;102206.25;;;11.73;100.00
62031;BME280;62035;52.094;5.112;2023-05-02T01:47:42;102209.28;;;11.68;100.00
62031;BME280;62035;52.094;5.112;2023-05-02T01:50:16;102211.22;;;11.89;100.00
62031;BME280;62035;52.094;5.112;2023-05-02T01:52:48;102212.56;;;11.94;100.00
62031;BME280;62035;52.094;5.112;2023-05-02T01:55:19;102216.53;;;12.00;100.00
62031;BME280;62035;52.094;5.112;2023-05-02T01:57:49;102206.75;;;11.89;100.00
62031;BME280;62035;52.094;5.112;2023-05-02T02:00:22;102202.50;;;11.87;100.00
62031;BME280;62035;52.094;5.112;2023-05-02T02:02:53;102206.50;;;11.81;100.00
62031;BME280;62035;52.094;5.112;2023-05-02T02:05:23;102211.13;;;11.46;100.00
62031;BME280;62035;52.094;5.112;2023-05-02T02:07:53;102217.53;;;11.65;100.00
62031;BME280;62035;52.094;5.112;2023-05-02T02:10:21;102219.94;;;11.68;100.00
62031;BME280;62035;52.094;5.112;2023-05-02T02:13:00;102219.47;;;11.75;100.00
62031;BME280;62035;52.094;5.112;2023-05-02T02:15:37;102208.47;;;11.46;100.00
62031;BME280;62035;52.094;5.112;2023-05-02T02:18:11;102233.19;;;11.59;100.00
62031;BME280;62035;52.094;5.112;2023-05-02T02:21:02;102235.50;;;11.52;100.00
62031;BME280;62035;52.094;5.112;2023-05-02T02:23:33;102234.41;;;11.55;100.00
62031;BME280;62035;52.094;5.112;2023-05-02T02:26:05;102250.88;;;11.38;100.00
62031;BME280;62035;52.094;5.112;2023-05-02T02:28:35;102254.13;;;11.41;100.00
62031;BME280;62035;52.094;5.112;2023-05-02T02:31:04;102240.78;;;11.30;100.00
62031;BME280;62035;52.094;5.112;2023-05-02T02:33:32;102247.59;;;11.45;100.00
62031;BME280;62035;52.094;5.112;2023-05-02T02:36:07;102247.59;;;11.34;100.00
62031;BME280;62035;52.094;5.112;2023-05-02T02:38:44;102241.66;;;11.30;100.00
62031;BME280;62035;52.094;5.112;2023-05-02T02:41:21;102248.19;;;11.38;100.00
62031;BME280;62035;52.094;5.112;2023-05-02T02:43:59;102259.97;;;11.46;100.00
62031;BME280;62035;52.094;5.112;2023-05-02T02:46:43;102264.06;;;11.39;100.00
62031;BME280;62035;52.094;5.112;2023-05-02T02:49:26;102254.25;;;11.40;100.00
62031;BME280;62035;52.094;5.112;2023-05-02T02:52:05;102249.16;;;11.25;100.00
62031;BME280;62035;52.094;5.112;2023-05-02T02:54:46;102265.88;;;11.27;100.00
62031;BME280;62035;52.094;5.112;2023-05-02T02:57:23;102261.63;;;11.36;100.00
62031;BME280;62035;52.094;5.112;2023-05-02T03:00:00;102265.28;;;11.35;100.00
62031;BME280;62035;52.094;5.112;2023-05-02T03:02:41;102274.34;;;11.21;100.00
62031;BME280;62035;52.094;5.112;2023-05-02T03:05:12;102271.22;;;11.39;100.00
62031;BME280;62035;52.094;5.112;2023-05-02T03:07:41;102277.72;;;11.23;100.00
62031;BME280;62035;52.094;5.112;2023-05-02T03:10:09;102276.88;;;11.23;100.00
62031;BME280;62035;52.094;5.112;2023-05-02T03:12:37;102289.13;;;11.25;100.00
62031;BME280;62035;52.094;5.112;2023-05-02T03:15:16;102283.78;;;11.25;100.00
62031;BME280;62035;52.094;5.112;2023-05-02T03:18:00;102298.06;;;11.13;100.00
62031;BME280;62035;52.094;5.112;2023-05-02T03:20:28;102292.63;;;11.15;100.00
62031;BME280;62035;52.094;5.112;2023-05-02T03:22:55;102295.28;;;11.15;100.00
62031;BME280;62035;52.094;5.112;2023-05-02T03:25:23;102294.41;;;11.03;100.00
62031;BME280;62035;52.094;5.112;2023-05-02T03:27:50;102310.63;;;11.00;100.00
62031;BME280;62035;52.094;5.112;2023-05-02T03:30:19;102308.34;;;11.07;100.00
62031;BME280;62035;52.094;5.112;2023-05-02T03:32:46;102313.34;;;11.11;100.00
62031;BME280;62035;52.094;5.112;2023-05-02T03:35:15;102319.50;;;11.12;100.00
62031;BME280;62035;52.094;5.112;2023-05-02T03:37:43;102318.50;;;11.01;100.00
62031;BME280;62035;52.094;5.112;2023-05-02T03:40:11;102313.84;;;11.16;100.00
62031;BME280;62035;52.094;5.112;2023-05-02T03:42:41;102321.91;;;11.03;100.00
62031;BME280;62035;52.094;5.112;2023-05-02T03:45:09;102321.72;;;11.18;100.00
62031;BME280;62035;52.094;5.112;2023-05-02T03:47:37;102329.53;;;11.08;100.00
62031;BME280;62035;52.094;5.112;2023-05-02T03:50:06;102303.44;;;10.89;100.00
62031;BME280;62035;52.094;5.112;2023-05-02T03:52:35;102322.75;;;10.80;100.00
62031;BME280;62035;52.094;5.112;2023-05-02T03:55:03;102324.50;;;10.92;100.00
62031;BME280;62035;52.094;5.112;2023-05-02T03:57:32;102323.91;;;10.89;100.00
62031;BME280;62035;52.094;5.112;2023-05-02T04:00:00;102318.00;;;10.96;100.00
62031;BME280;62035;52.094;5.112;2023-05-02T04:02:28;102329.03;;;10.68;100.00
62031;BME280;62035;52.094;5.112;2023-05-02T04:04:56;102329.03;;;10.68;100.00
62031;BME280;62035;52.094;5.112;2023-05-02T04:07:24;102329.47;;;10.62;100.00
62031;BME280;62035;52.094;5.112;2023-05-02T04:09:53;102337.84;;;10.45;100.00
62031;BME280;62035;52.094;5.112;2023-05-02T04:12:21;102336.13;;;10.44;100.00
62031;BME280;62035;52.094;5.112;2023-05-02T04:14:48;102343.16;;;10.45;100.00
62031;BME280;62035;52.094;5.112;2023-05-02T04:17:16;102354.50;;;10.23;100.00
62031;BME280;62035;52.094;5.112;2023-05-02T04:19:43;102340.44;;;10.33;100.00
62031;BME280;62035;52.094;5.112;2023-05-02T04:22:11;102355.72;;;10.43;100.00
62031;BME280;62035;52.094;5.112;2023-05-02T04:24:38;102352.94;;;10.44;100.00
62031;BME280;62035;52.094;5.112;2023-05-02T04:27:07;102357.94;;;10.49;100.00
62031;BME280;62035;52.094;5.112;2023-05-02T04:29:35;102373.00;;;10.37;100.00
62031;BME280;62035;52.094;5.112;2023-05-02T04:32:03;102375.59;;;10.26;100.00
62031;BME280;62035;52.094;5.112;2023-05-02T04:34:31;102380.16;;;10.24;100.00
62031;BME280;62035;52.094;5.112;2023-05-02T04:37:00;102380.25;;;10.35;100.00
62031;BME280;62035;52.094;5.112;2023-05-02T04:39:28;102385.56;;;10.35;100.00
62031;BME280;62035;52.094;5.112;2023-05-02T04:41:55;102393.41;;;10.49;100.00
62031;BME280;62035;52.094;5.112;2023-05-02T04:44:24;102388.25;;;10.59;100.00
62031;BME280;62035;52.094;5.112;2023-05-02T04:46:52;102399.72;;;10.72;100.00
62031;BME280;62035;52.094;5.112;2023-05-02T04:49:19;102396.00;;;10.75;100.00
62031;BME280;62035;52.094;5.112;2023-05-02T04:51:47;102394.19;;;10.75;100.00
62031;BME280;62035;52.094;5.112;2023-05-02T04:54:17;102400.56;;;10.73;100.00
62031;BME280;62035;52.094;5.112;2023-05-02T04:56:44;102410.09;;;10.88;100.00
62031;BME280;62035;52.094;5.112;2023-05-02T04:59:12;102410.72;;;10.91;100.00
62031;BME280;62035;52.094;5.112;2023-05-02T05:01:41;102417.84;;;10.91;100.00
62031;BME280;62035;52.094;5.112;2023-05-02T05:04:10;102420.97;;;10.85;100.00
62031;BME280;62035;52.094;5.112;2023-05-02T05:06:38;102422.53;;;10.87;100.00
62031;BME280;62035;52.094;5.112;2023-05-02T05:09:05;102421.44;;;10.79;100.00
62031;BME280;62035;52.094;5.112;2023-05-02T05:11:33;102425.94;;;10.65;100.00
62031;BME280;62035;52.094;5.112;2023-05-02T05:14:01;102431.38;;;10.88;100.00
62031;BME280;62035;52.094;5.112;2023-05-02T05:16:29;102430.84;;;10.95;100.00
62031;BME280;62035;52.094;5.112;2023-05-02T05:18:58;102435.72;;;11.01;100.00
62031;BME280;62035;52.094;5.112;2023-05-02T05:21:25;102444.19;;;10.83;100.00
62031;BME280;62035;52.094;5.112;2023-05-02T05:23:53;102438.59;;;10.98;100.00
62031;BME280;62035;52.094;5.112;2023-05-02T05:26:20;102434.41;;;11.07;100.00
62031;BME280;62035;52.094;5.112;2023-05-02T05:28:48;102437.69;;;11.11;100.00
62031;BME280;62035;52.094;5.112;2023-05-02T05:31:16;102445.13;;;10.94;100.00
62031;BME280;62035;52.094;5.112;2023-05-02T05:33:44;102445.41;;;11.02;100.00
62031;BME280;62035;52.094;5.112;2023-05-02T05:36:13;102445.22;;;10.93;100.00
62031;BME280;62035;52.094;5.112;2023-05-02T05:38:40;102444.03;;;11.21;100.00
62031;BME280;62035;52.094;5.112;2023-05-02T05:41:08;102459.50;;;10.92;100.00
62031;BME280;62035;52.094;5.112;2023-05-02T05:43:36;102460.97;;;10.96;100.00
62031;BME280;62035;52.094;5.112;2023-05-02T05:46:04;102458.91;;;11.12;100.00
62031;BME280;62035;52.094;5.112;2023-05-02T05:48:32;102467.56;;;11.03;100.00
62031;BME280;62035;52.094;5.112;2023-05-02T05:51:02;102477.81;;;11.20;100.00
62031;BME280;62035;52.094;5.112;2023-05-02T05:53:32;102469.16;;;11.29;100.00
62031;BME280;62035;52.094;5.112;2023-05-02T05:56:07;102485.53;;;11.36;100.00
62031;BME280;62035;52.094;5.112;2023-05-02T05:58:35;102482.47;;;11.29;100.00
62031;BME280;62035;52.094;5.112;2023-05-02T06:01:03;102481.69;;;11.40;100.00
62031;BME280;62035;52.094;5.112;2023-05-02T06:03:31;102483.31;;;11.54;100.00
62031;BME280;62035;52.094;5.112;2023-05-02T06:05:59;102494.34;;;11.60;100.00
62031;BME280;62035;52.094;5.112;2023-05-02T06:08:26;102500.31;;;11.64;100.00
62031;BME280;62035;52.094;5.112;2023-05-02T06:10:55;102500.16;;;11.78;100.00
62031;BME280;62035;52.094;5.112;2023-05-02T06:13:23;102505.06;;;11.72;100.00
62031;BME280;62035;52.094;5.112;2023-05-02T06:15:50;102498.19;;;11.45;100.00
62031;BME280;62035;52.094;5.112;2023-05-02T06:18:18;102519.63;;;11.44;100.00
62031;BME280;62035;52.094;5.112;2023-05-02T06:20:46;102521.06;;;11.72;100.00
62031;BME280;62035;52.094;5.112;2023-05-02T06:23:13;102518.25;;;11.86;100.00
62031;BME280;62035;52.094;5.112;2023-05-02T06:25:41;102521.53;;;11.89;100.00
62031;BME280;62035;52.094;5.112;2023-05-02T06:28:10;102515.63;;;12.08;100.00
62031;BME280;62035;52.094;5.112;2023-05-02T06:30:37;102525.16;;;11.88;100.00
62031;BME280;62035;52.094;5.112;2023-05-02T06:33:06;102522.44;;;12.12;100.00
62031;BME280;62035;52.094;5.112;2023-05-02T06:35:33;102518.34;;;12.30;100.00
62031;BME280;62035;52.094;5.112;2023-05-02T06:38:01;102523.78;;;12.40;100.00
62031;BME280;62035;52.094;5.112;2023-05-02T06:40:28;102529.50;;;12.47;100.00
62031;BME280;62035;52.094;5.112;2023-05-02T06:42:56;102536.91;;;12.54;100.00
62031;BME280;62035;52.094;5.112;2023-05-02T06:45:25;102540.53;;;12.20;100.00
62031;BME280;62035;52.094;5.112;2023-05-02T06:47:52;102553.16;;;12.40;100.00
62031;BME280;62035;52.094;5.112;2023-05-02T06:50:20;102556.53;;;12.20;100.00
62031;BME280;62035;52.094;5.112;2023-05-02T06:52:47;102571.31;;;12.13;100.00
62031;BME280;62035;52.094;5.112;2023-05-02T06:55:15;102578.47;;;12.12;100.00
62031;BME280;62035;52.094;5.112;2023-05-02T06:57:43;102576.72;;;12.35;100.00
62031;BME280;62035;52.094;5.112;2023-05-02T07:00:11;102576.50;;;12.38;100.00
62031;BME280;62035;52.094;5.112;2023-05-02T07:02:41;102577.19;;;12.29;100.00
62031;BME280;62035;52.094;5.112;2023-05-02T07:05:10;102583.97;;;12.22;100.00
62031;BME280;62035;52.094;5.112;2023-05-02T07:07:40;102576.59;;;11.90;100.00
62031;BME280;62035;52.094;5.112;2023-05-02T07:10:09;102585.56;;;11.89;100.00
62031;BME280;62035;52.094;5.112;2023-05-02T07:12:37;102591.78;;;11.53;100.00
62031;BME280;62035;52.094;5.112;2023-05-02T07:15:06;102597.56;;;11.47;100.00
62031;BME280;62035;52.094;5.112;2023-05-02T07:17:35;102595.97;;;11.45;100.00
62031;BME280;62035;52.094;5.112;2023-05-02T07:20:05;102600.53;;;11.55;100.00
62031;BME280;62035;52.094;5.112;2023-05-02T07:22:34;102611.75;;;11.48;100.00
62031;BME280;62035;52.094;5.112;2023-05-02T07:25:02;102609.66;;;11.27;100.00
62031;BME280;62035;52.094;5.112;2023-05-02T07:27:30;102613.72;;;11.20;100.00
62031;BME280;62035;52.094;5.112;2023-05-02T07:29:58;102616.47;;;11.31;100.00
62031;BME280;62035;52.094;5.112;2023-05-02T07:32:26;102612.75;;;11.21;100.00
62031;BME280;62035;52.094;5.112;2023-05-02T07:34:54;102621.25;;;11.39;100.00
62031;BME280;62035;52.094;5.112;2023-05-02T07:37:23;102624.56;;;11.43;100.00
62031;BME280;62035;52.094;5.112;2023-05-02T07:39:51;102624.56;;;11.66;100.00
62031;BME280;62035;52.094;5.112;2023-05-02T07:42:18;102618.78;;;11.85;100.00
62031;BME280;62035;52.094;5.112;2023-05-02T07:44:46;102619.13;;;12.16;100.00
62031;BME280;62035;52.094;5.112;2023-05-02T07:47:13;102616.38;;;12.28;100.00
62031;BME280;62035;52.094;5.112;2023-05-02T07:49:41;102623.31;;;12.42;100.00
62031;BME280;62035;52.094;5.112;2023-05-02T07:52:08;102625.91;;;12.55;100.00
62031;BME280;62035;52.094;5.112;2023-05-02T07:54:37;102619.16;;;12.27;100.00
62031;BME280;62035;52.094;5.112;2023-05-02T07:57:05;102623.03;;;12.23;100.00
62031;BME280;62035;52.094;5.112;2023-05-02T07:59:33;102630.03;;;12.13;100.00
62031;BME280;62035;52.094;5.112;2023-05-02T08:02:01;102643.13;;;12.51;100.00
62031;BME280;62035;52.094;5.112;2023-05-02T08:04:28;102633.00;;;13.12;100.00
62031;BME280;62035;52.094;5.112;2023-05-02T08:06:56;102637.75;;;13.30;100.00
62031;BME280;62035;52.094;5.112;2023-05-02T08:09:23;102635.06;;;12.97;100.00
62031;BME280;62035;52.094;5.112;2023-05-02T08:11:52;102646.72;;;13.29;100.00
62031;BME280;62035;52.094;5.112;2023-05-02T08:14:20;102653.78;;;13.42;100.00
62031;BME280;62035;52.094;5.112;2023-05-02T08:16:48;102655.97;;;13.14;100.00
62031;BME280;62035;52.094;5.112;2023-05-02T08:19:15;102653.41;;;13.13;100.00
62031;BME280;62035;52.094;5.112;2023-05-02T08:21:43;102649.63;;;13.49;100.00
62031;BME280;62035;52.094;5.112;2023-05-02T08:24:11;102656.34;;;13.21;100.00
62031;BME280;62035;52.094;5.112;2023-05-02T08:26:38;102668.47;;;13.47;100.00
62031;BME280;62035;52.094;5.112;2023-05-02T08:29:07;102663.56;;;13.75;100.00
62031;BME280;62035;52.094;5.112;2023-05-02T08:31:36;102661.69;;;13.97;100.00
62031;BME280;62035;52.094;5.112;2023-05-02T08:34:04;102664.66;;;13.61;100.00
62031;BME280;62035;52.094;5.112;2023-05-02T08:36:32;102676.31;;;13.82;100.00
62031;BME280;62035;52.094;5.112;2023-05-02T08:38:59;102670.81;;;13.95;100.00
62031;BME280;62035;52.094;5.112;2023-05-02T08:41:28;102673.94;;;13.57;100.00
62031;BME280;62035;52.094;5.112;2023-05-02T08:43:56;102683.41;;;13.61;100.00
62031;BME280;62035;52.094;5.112;2023-05-02T08:46:27;102692.44;;;13.49;100.00
62031;BME280;62035;52.094;5.112;2023-05-02T08:48:57;102684.03;;;13.53;100.00
62031;BME280;62035;52.094;5.112;2023-05-02T08:51:28;102683.41;;;13.61;100.00
62031;BME280;62035;52.094;5.112;2023-05-02T08:53:57;102695.91;;;13.72;100.00
62031;BME280;62035;52.094;5.112;2023-05-02T08:56:28;102690.63;;;13.38;100.00
62031;BME280;62035;52.094;5.112;2023-05-02T08:58:55;102691.19;;;12.97;100.00
62031;BME280;62035;52.094;5.112;2023-05-02T09:01:29;102702.34;;;13.02;100.00
62031;BME280;62035;52.094;5.112;2023-05-02T09:03:57;102704.09;;;13.37;100.00
62031;BME280;62035;52.094;5.112;2023-05-02T09:06:25;102699.00;;;13.33;100.00
62031;BME280;62035;52.094;5.112;2023-05-02T09:08:54;102703.84;;;13.28;100.00
62031;BME280;62035;52.094;5.112;2023-05-02T09:11:25;102715.03;;;13.56;100.00
62031;BME280;62035;52.094;5.112;2023-05-02T09:13:53;102701.69;;;13.45;100.00
62031;BME280;62035;52.094;5.112;2023-05-02T09:16:22;102710.25;;;13.93;100.00
62031;BME280;62035;52.094;5.112;2023-05-02T09:18:53;102708.78;;;13.89;100.00
62031;BME280;62035;52.094;5.112;2023-05-02T09:21:23;102707.22;;;13.86;100.00
62031;BME280;62035;52.094;5.112;2023-05-02T09:23:53;102709.38;;;13.92;100.00
62031;BME280;62035;52.094;5.112;2023-05-02T09:26:22;102696.41;;;14.09;100.00
62031;BME280;62035;52.094;5.112;2023-05-02T09:28:53;102720.28;;;14.44;100.00
62031;BME280;62035;52.094;5.112;2023-05-02T09:31:23;102722.44;;;14.18;100.00
62031;BME280;62035;52.094;5.112;2023-05-02T09:33:53;102723.50;;;13.94;100.00
62031;BME280;62035;52.094;5.112;2023-05-02T09:36:21;102726.00;;;14.07;100.00
62031;BME280;62035;52.094;5.112;2023-05-02T09:38:50;102719.47;;;14.32;100.00
62031;BME280;62035;52.094;5.112;2023-05-02T09:41:17;102725.34;;;14.26;99.48
62031;BME280;62035;52.094;5.112;2023-05-02T09:43:54;102724.53;;;14.46;94.89
62031;BME280;62035;52.094;5.112;2023-05-02T09:46:23;102726.25;;;14.89;90.25
62031;BME280;62035;52.094;5.112;2023-05-02T09:48:53;102726.78;;;15.34;78.08
62031;BME280;62035;52.094;5.112;2023-05-02T09:51:23;102720.88;;;15.71;77.18
62031;BME280;62035;52.094;5.112;2023-05-02T09:53:51;102718.81;;;15.93;73.13
62031;BME280;62035;52.094;5.112;2023-05-02T09:56:19;102725.00;;;15.44;76.83
62031;BME280;62035;52.094;5.112;2023-05-02T09:58:47;102726.91;;;15.02;77.01
62031;BME280;62035;52.094;5.112;2023-05-02T10:01:15;102739.78;;;15.08;76.06
62031;BME280;62035;52.094;5.112;2023-05-02T10:03:46;102725.94;;;15.03;74.83
62031;BME280;62035;52.094;5.112;2023-05-02T10:06:18;102734.81;;;14.83;74.58
62031;BME280;62035;52.094;5.112;2023-05-02T10:08:47;102740.44;;;14.27;77.19
62031;BME280;62035;52.094;5.112;2023-05-02T10:11:15;102753.19;;;14.34;78.45
62031;BME280;62035;52.094;5.112;2023-05-02T10:13:44;102747.00;;;14.66;77.80
62031;BME280;62035;52.094;5.112;2023-05-02T10:16:19;102745.94;;;14.99;72.75
62031;BME280;62035;52.094;5.112;2023-05-02T10:18:57;102743.88;;;15.33;70.39
62031;BME280;62035;52.094;5.112;2023-05-02T10:21:31;102739.50;;;15.62;68.64
62031;BME280;62035;52.094;5.112;2023-05-02T10:24:00;102743.19;;;15.10;67.96
62031;BME280;62035;52.094;5.112;2023-05-02T10:26:29;102747.25;;;14.84;69.47
62031;BME280;62035;52.094;5.112;2023-05-02T10:28:57;102744.53;;;14.42;74.54
62031;BME280;62035;52.094;5.112;2023-05-02T10:31:27;102750.19;;;14.60;77.58
62031;BME280;62035;52.094;5.112;2023-05-02T10:34:00;102749.88;;;14.74;73.33
62031;BME280;62035;52.094;5.112;2023-05-02T10:36:32;102755.38;;;15.14;74.27
62031;BME280;62035;52.094;5.112;2023-05-02T10:39:00;102748.06;;;15.26;75.71
62031;BME280;62035;52.094;5.112;2023-05-02T10:41:30;102762.03;;;14.99;72.65
62031;BME280;62035;52.094;5.112;2023-05-02T10:44:01;102771.78;;;15.00;74.27
62031;BME280;62035;52.094;5.112;2023-05-02T10:46:33;102761.84;;;14.70;73.79
62031;BME280;62035;52.094;5.112;2023-05-02T10:49:04;102772.34;;;14.08;78.26
62031;BME280;62035;52.094;5.112;2023-05-02T10:51:35;102768.84;;;14.07;78.79
62031;BME280;62035;52.094;5.112;2023-05-02T10:54:20;102763.47;;;14.18;74.96
62031;BME280;62035;52.094;5.112;2023-05-02T10:57:03;102765.41;;;14.59;74.88
62031;BME280;62035;52.094;5.112;2023-05-02T10:59:34;102774.16;;;14.61;73.42
62031;BME280;62035;52.094;5.112;2023-05-02T11:02:03;102777.09;;;14.58;70.90
62031;BME280;62035;52.094;5.112;2023-05-02T11:05:00;102767.75;;;14.53;72.24
62031;BME280;62035;52.094;5.112;2023-05-02T11:07:31;102760.25;;;14.35;70.95
62031;BME280;62035;52.094;5.112;2023-05-02T11:10:23;102783.59;;;13.90;74.84
62031;BME280;62035;52.094;5.112;2023-05-02T11:12:54;102783.00;;;13.76;75.18
62031;BME280;62035;52.094;5.112;2023-05-02T11:15:54;102778.66;;;14.29;73.42
62031;BME280;62035;52.094;5.112;2023-05-02T11:18:25;102773.88;;;14.96;69.45
62031;BME280;62035;52.094;5.112;2023-05-02T11:21:25;102784.00;;;14.93;68.13
62031;BME280;62035;52.094;5.112;2023-05-02T11:27:37;102786.59;;;14.83;67.66
62031;BME280;62035;52.094;5.112;2023-05-02T11:30:06;102797.34;;;15.04;67.61
62031;BME280;62035;52.094;5.112;2023-05-02T11:33:15;102787.09;;;15.40;67.11
62031;BME280;62035;52.094;5.112;2023-05-02T11:35:46;102781.91;;;15.68;66.23
62031;BME280;62035;52.094;5.112;2023-05-02T11:38:17;102787.56;;;15.75;64.71
62031;BME280;62035;52.094;5.112;2023-05-02T11:40:51;102786.69;;;16.15;61.94
62031;BME280;62035;52.094;5.112;2023-05-02T11:43:20;102783.63;;;15.79;62.29
62031;BME280;62035;52.094;5.112;2023-05-02T11:45:50;102786.78;;;15.84;63.55
62031;BME280;62035;52.094;5.112;2023-05-02T11:48:20;102787.66;;;16.04;61.87
62031;BME280;62035;52.094;5.112;2023-05-02T11:50:50;102779.28;;;16.66;58.30
62031;BME280;62035;52.094;5.112;2023-05-02T11:53:19;102783.53;;;16.79;57.55
62031;BME280;62035;52.094;5.112;2023-05-02T11:55:51;102794.09;;;16.61;58.65
62031;BME280;62035;52.094;5.112;2023-05-02T11:58:21;102785.19;;;17.09;56.87
62031;BME280;62035;52.094;5.112;2023-05-02T12:00:51;102797.25;;;16.76;56.01
62031;BME280;62035;52.094;5.112;2023-05-02T12:03:21;102809.81;;;16.56;57.16
62031;BME280;62035;52.094;5.112;2023-05-02T12:05:50;102803.78;;;17.39;54.39
62031;BME280;62035;52.094;5.112;2023-05-02T12:08:18;102807.41;;;17.01;55.65
62031;BME280;62035;52.094;5.112;2023-05-02T12:10:51;102801.72;;;16.46;55.12
62031;BME280;62035;52.094;5.112;2023-05-02T12:13:22;102809.50;;;16.49;56.11
62031;BME280;62035;52.094;5.112;2023-05-02T12:15:52;102795.75;;;17.20;55.48
62031;BME280;62035;52.094;5.112;2023-05-02T12:18:22;102806.69;;;17.18;55.02
62031;BME280;62035;52.094;5.112;2023-05-02T12:20:51;102813.31;;;17.80;51.52
62031;BME280;62035;52.094;5.112;2023-05-02T12:23:22;102808.28;;;17.58;50.96
62031;BME280;62035;52.094;5.112;2023-05-02T12:25:53;102807.31;;;17.49;50.78
62031;BME280;62035;52.094;5.112;2023-05-02T12:28:21;102820.50;;;17.43;52.05
62031;BME280;62035;52.094;5.112;2023-05-02T12:30:50;102816.00;;;17.24;52.57
62031;BME280;62035;52.094;5.112;2023-05-02T12:33:18;102829.94;;;17.66;50.88
62031;BME280;62035;52.094;5.112;2023-05-02T12:35:45;102830.81;;;17.57;50.57
62031;BME280;62035;52.094;5.112;2023-05-02T12:38:15;102822.13;;;17.73;49.92
62031;BME280;62035;52.094;5.112;2023-05-02T12:40:48;102833.75;;;17.63;49.61
62031;BME280;62035;52.094;5.112;2023-05-02T12:43:19;102844.25;;;17.66;50.71
62031;BME280;62035;52.094;5.112;2023-05-02T12:45:48;102839.84;;;17.75;50.54
62031;BME280;62035;52.094;5.112;2023-05-02T12:48:23;102839.25;;;18.09;50.37
62031;BME280;62035;52.094;5.112;2023-05-02T12:50:53;102845.75;;;18.16;49.78
62031;BME280;62035;52.094;5.112;2023-05-02T12:53:37;102830.47;;;17.79;48.04
62031;BME280;62035;52.094;5.112;2023-05-02T12:56:06;102843.53;;;17.74;49.96
62031;BME280;62035;52.094;5.112;2023-05-02T12:58:41;102844.91;;;17.88;49.50
62031;BME280;62035;52.094;5.112;2023-05-02T13:01:10;102838.56;;;18.52;48.94
62031;BME280;62035;52.094;5.112;2023-05-02T13:03:38;102838.31;;;18.27;48.51